• NOTAM LFRU

     22/04/21 12:00Z - 20/04/22 11:59Z
    E) PROTECTION CIRCULATION ET PROCEDURES AERODROME - SUP AIP 064/21: OBJET: CREATION, A TITRE EXPERIMENTAL, D'UNE ZONE A UTILISATION OBLIGATOIRE DE LA RADIO (RMZ). CE SUP AIP EST DISPONIBLE SUR WWW.SIA.AVIATION-CIVILE.GOUV.FR

     Durée permanente depuis 17/08/21 08:25Z
    E) MET : AD RATTACHE AU CRA DE RENNES, SECOURU PAR LE CRA DE NANTES HORAIRES : 0100-2200 (SUMMER-1HR) METAR : 0600-2000 ETE, 0800-1800 HIV. REF LFRU AD2.11, GEN 3.5-9











  • PHOTOS SATELLITE

CARTE TEMSI

CARTE WINTEM

  • Vent au sol

  • Vent à 2000ft

  • ANIMATION RADAR

  • METAR/TAF LFRU (MORLAIX / Ploujean)

    Aucun METAR

    METAR/TAF LFRB (BREST / Guipavas)

    LFRB 040130Z AUTO 29014KT 260V320 6000 DZ OVC007 11/10 Q1003 TEMPO 4000 SHRA BKN012TCU BECMG 29020G30KT

    TAF LFRB 032300Z 0400/0506 29020G30KT 9999 BKN020 TEMPO 0400/0401 3000 -RADZ OVC005 PROB30 TEMPO 0401/0406 4000 SHRA BKN012TCU TEMPO 0406/0503 30025G40KT 4000 SHRA BKN015CB PROB40 TEMPO 0406/0424 30025G50KT 2000 TSRAGR TEMPO 0503/0506 4000 SHRA BKN030TCU

    METAR/TAF LFRO (LANNION / Servel)

    LFRO 040130Z AUTO 26018KT 7000 -DZ OVC004 12/11 Q1003